Time;durP1;ratioP1;P1;durP2;ratioP2;P2;SDS_P1;SDS_P2;PMS_P1;PMS_P2;Temp;Humidity;BMP_temperature;BMP_pressure;BME280_temperature;BME280_humidity;BME280_pressure;Samples;Min_cycle;Max_cycle;Signal;HPM_P1;HPM_P2
2023/09/04 00:01:20;;;;;;;;;;;18.90;99.90;;;;;;5085744;28;19981;-70
2023/09/04 00:03:48;;;;;;;;;;;18.80;99.90;;;;;;5079267;28;19932;-70
2023/09/04 00:06:15;;;;;;;;;;;18.70;99.90;;;;;;5081575;28;20456;-70
2023/09/04 00:08:43;;;;;;;;;;;18.90;99.90;;;;;;5080744;28;19989;-69
2023/09/04 00:11:11;;;;;;;;;;;19.00;99.90;;;;;;5079708;28;19932;-71
2023/09/04 00:13:39;;;;;;;;;;;18.90;99.90;;;;;;5084378;28;19930;-71
2023/09/04 00:16:07;;;;;;;;;;;18.70;99.90;;;;;;5077134;28;20116;-71
2023/09/04 00:18:36;;;;;;;;;;;18.70;99.90;;;;;;5081799;28;19939;-71
2023/09/04 00:21:03;;;;;;;;;;;18.60;99.90;;;;;;5083621;28;19932;-70
2023/09/04 00:23:31;;;;;;;;;;;18.70;99.90;;;;;;5083243;28;19931;-70
2023/09/04 00:25:59;;;;;;;;;;;19.00;99.90;;;;;;5077161;28;19978;-70
2023/09/04 00:28:27;;;;;;;;;;;19.10;99.90;;;;;;5077111;28;19932;-71
2023/09/04 00:30:56;;;;;;;;;;;19.30;99.90;;;;;;5085195;28;19935;-70
2023/09/04 00:33:24;;;;;;;;;;;19.10;99.90;;;;;;5075255;28;19924;-70
2023/09/04 00:35:53;;;;;;;;;;;19.00;99.90;;;;;;5088118;28;19958;-70
2023/09/04 00:38:21;;;;;;;;;;;18.70;99.90;;;;;;5082255;28;20386;-70
2023/09/04 00:40:49;;;;;;;;;;;18.80;99.90;;;;;;5086104;28;19924;-70
2023/09/04 00:43:17;;;;;;;;;;;18.80;99.90;;;;;;5079692;28;20391;-70
2023/09/04 00:45:45;;;;;;;;;;;18.70;99.90;;;;;;5076544;28;19954;-70
2023/09/04 00:48:13;;;;;;;;;;;18.70;99.90;;;;;;5086918;28;20346;-69
2023/09/04 00:50:42;;;;;;;;;;;18.50;99.90;;;;;;5082082;28;20329;-71
2023/09/04 00:53:11;;;;;;;;;;;18.60;99.90;;;;;;5084797;28;19978;-70
2023/09/04 00:55:40;;;;;;;;;;;18.60;99.90;;;;;;5082139;28;19928;-70
2023/09/04 00:58:07;;;;;;;;;;;18.40;99.90;;;;;;5075581;28;19928;-69
2023/09/04 01:00:35;;;;;;;;;;;18.30;99.90;;;;;;5073067;28;20343;-69
2023/09/04 01:03:04;;;;;;;;;;;18.10;99.90;;;;;;5073760;28;20386;-69
2023/09/04 01:05:32;;;;;;;;;;;17.90;99.90;;;;;;5074136;28;19958;-69
2023/09/04 01:08:00;;;;;;;;;;;17.80;99.90;;;;;;5082264;28;20399;-70
2023/09/04 01:10:34;;;;;;;;;;;17.90;99.90;;;;;;5074331;28;19935;-69
2023/09/04 01:13:05;;;;;;;;;;;17.80;99.90;;;;;;5077521;28;19928;-70
2023/09/04 01:15:33;;;;;;;;;;;17.70;99.90;;;;;;5075796;28;19924;-69
2023/09/04 01:18:02;;;;;;;;;;;18.00;99.90;;;;;;5074286;28;19924;-69
2023/09/04 01:20:32;;;;;;;;;;;18.00;99.90;;;;;;5073663;28;20378;-70
2023/09/04 01:23:00;;;;;;;;;;;18.20;99.90;;;;;;5083100;28;19991;-69
2023/09/04 01:25:33;;;;;;;;;;;18.20;99.90;;;;;;5083950;28;19928;-70
2023/09/04 01:28:04;;;;;;;;;;;18.30;99.90;;;;;;5072670;28;19985;-70
2023/09/04 01:30:38;;;;;;;;;;;18.20;99.90;;;;;;5083599;28;19924;-70
2023/09/04 01:33:09;;;;;;;;;;;18.30;99.90;;;;;;5086098;28;20391;-70
2023/09/04 01:35:39;;;;;;;;;;;18.20;99.90;;;;;;5080949;28;19929;-69
2023/09/04 01:38:07;;;;;;;;;;;18.10;99.90;;;;;;5087341;28;19932;-70
2023/09/04 01:40:35;;;;;;;;;;;17.90;99.90;;;;;;5076930;28;19924;-69
2023/09/04 01:43:03;;;;;;;;;;;17.70;99.90;;;;;;5082194;28;19932;-69
2023/09/04 01:45:31;;;;;;;;;;;17.50;99.90;;;;;;5086469;28;20070;-69
2023/09/04 01:47:58;;;;;;;;;;;17.50;99.90;;;;;;5087045;28;20337;-69
2023/09/04 01:50:26;;;;;;;;;;;17.70;99.90;;;;;;5076053;28;19924;-69
2023/09/04 01:52:55;;;;;;;;;;;17.90;99.90;;;;;;5087779;28;19924;-69
2023/09/04 01:55:23;;;;;;;;;;;17.90;99.90;;;;;;5080843;28;20345;-69
2023/09/04 01:57:51;;;;;;;;;;;17.80;99.90;;;;;;5087232;28;20044;-69
2023/09/04 02:00:18;;;;;;;;;;;18.00;99.90;;;;;;5083761;28;19932;-70
2023/09/04 02:02:46;;;;;;;;;;;18.00;99.90;;;;;;5080906;28;19924;-70
2023/09/04 02:05:14;;;;;;;;;;;17.80;99.90;;;;;;5080641;28;19928;-71
2023/09/04 02:07:42;;;;;;;;;;;17.60;99.90;;;;;;5081056;28;20105;-70
2023/09/04 02:10:11;;;;;;;;;;;17.60;99.90;;;;;;5083525;28;19931;-70
2023/09/04 02:12:39;;;;;;;;;;;17.80;99.90;;;;;;5075345;28;19928;-69
2023/09/04 02:15:07;;;;;;;;;;;17.80;99.90;;;;;;5083181;28;19931;-71
2023/09/04 02:17:35;;;;;;;;;;;18.00;99.90;;;;;;5089700;28;19931;-69
2023/09/04 02:20:04;;;;;;;;;;;18.10;99.90;;;;;;5085008;28;19928;-70
2023/09/04 02:22:32;;;;;;;;;;;18.10;99.90;;;;;;5086415;28;20009;-69
2023/09/04 02:25:00;;;;;;;;;;;18.10;99.90;;;;;;5075883;28;19932;-69
2023/09/04 02:27:29;;;;;;;;;;;17.80;99.90;;;;;;5083783;28;19924;-70
2023/09/04 02:29:58;;;;;;;;;;;17.70;99.90;;;;;;5083447;28;20310;-69
2023/09/04 02:32:26;;;;;;;;;;;17.80;99.90;;;;;;5074471;28;19935;-70
2023/09/04 02:34:54;;;;;;;;;;;18.10;99.90;;;;;;5081249;28;19936;-69
2023/09/04 02:37:21;;;;;;;;;;;18.30;99.90;;;;;;5083358;28;19931;-69
2023/09/04 02:39:49;;;;;;;;;;;18.30;99.90;;;;;;5083129;28;20641;-69
2023/09/04 02:42:17;;;;;;;;;;;18.20;99.90;;;;;;5081278;28;19925;-69
2023/09/04 02:44:46;;;;;;;;;;;18.00;99.90;;;;;;5071817;28;19947;-70
2023/09/04 02:47:14;;;;;;;;;;;17.60;99.90;;;;;;5078743;28;19932;-69
2023/09/04 02:49:42;;;;;;;;;;;17.60;99.90;;;;;;5075659;28;19978;-69
2023/09/04 02:52:11;;;;;;;;;;;17.70;99.90;;;;;;5075124;28;19924;-69
2023/09/04 02:54:38;;;;;;;;;;;17.60;99.90;;;;;;5084194;28;19940;-70
2023/09/04 02:57:06;;;;;;;;;;;17.40;99.90;;;;;;5084404;28;19924;-70
2023/09/04 02:59:35;;;;;;;;;;;17.50;99.90;;;;;;5076380;28;19932;-71
2023/09/04 03:02:04;;;;;;;;;;;17.30;99.90;;;;;;5076567;28;19932;-71
2023/09/04 03:04:33;;;;;;;;;;;17.40;99.90;;;;;;5072500;28;19924;-70
2023/09/04 03:07:01;;;;;;;;;;;17.60;99.90;;;;;;5080238;28;19932;-70
2023/09/04 03:09:31;;;;;;;;;;;17.70;99.90;;;;;;5083130;28;19931;-69
2023/09/04 03:11:59;;;;;;;;;;;18.10;99.90;;;;;;5080455;28;19935;-70
2023/09/04 03:14:27;;;;;;;;;;;18.10;99.90;;;;;;5075937;28;19924;-70
2023/09/04 03:16:55;;;;;;;;;;;18.10;99.90;;;;;;5075724;28;20291;-70
2023/09/04 03:19:24;;;;;;;;;;;18.20;99.90;;;;;;5099337;22;19929;-67
2023/09/04 03:21:52;;;;;;;;;;;18.20;99.90;;;;;;5064041;28;19924;-67
2023/09/04 03:24:20;;;;;;;;;;;18.20;99.90;;;;;;5062897;28;19924;-67
2023/09/04 03:26:48;;;;;;;;;;;18.30;99.90;;;;;;5067305;28;19951;-67
2023/09/04 03:29:15;;;;;;;;;;;18.10;99.90;;;;;;5062266;28;19924;-67
2023/09/04 03:31:44;;;;;;;;;;;18.20;99.90;;;;;;5038191;28;20356;-67
2023/09/04 03:34:12;;;;;;;;;;;18.20;99.90;;;;;;5046007;28;19929;-67
2023/09/04 03:36:41;;;;;;;;;;;18.10;99.90;;;;;;5045572;28;19929;-67
2023/09/04 03:39:10;;;;;;;;;;;18.10;99.90;;;;;;5042220;28;19929;-65
2023/09/04 03:41:38;;;;;;;;;;;18.10;99.90;;;;;;5046545;28;20299;-66
2023/09/04 03:44:06;;;;;;;;;;;18.20;99.90;;;;;;5045341;28;19928;-67
2023/09/04 03:46:34;;;;;;;;;;;18.30;99.90;;;;;;5050701;28;19924;-67
2023/09/04 03:49:01;;;;;;;;;;;18.30;99.90;;;;;;5044344;28;19986;-66
2023/09/04 03:51:29;;;;;;;;;;;18.40;99.90;;;;;;5049056;28;19931;-67
2023/09/04 03:54:01;;;;;;;;;;;18.40;99.90;;;;;;5049771;28;19924;-67
2023/09/04 03:56:30;;;;;;;;;;;18.40;99.90;;;;;;5053058;28;19978;-68
2023/09/04 03:58:58;;;;;;;;;;;18.40;99.90;;;;;;5057827;28;19944;-66
2023/09/04 04:01:28;;;;;;;;;;;18.20;99.90;;;;;;5051519;28;19929;-67
2023/09/04 04:03:55;;;;;;;;;;;18.10;99.90;;;;;;5045038;28;19929;-68
2023/09/04 04:06:25;;;;;;;;;;;18.10;99.90;;;;;;5040186;28;19925;-67
2023/09/04 04:08:54;;;;;;;;;;;18.10;99.90;;;;;;5055735;28;20006;-66
2023/09/04 04:11:23;;;;;;;;;;;18.20;99.90;;;;;;5052272;28;19974;-66
2023/09/04 04:13:51;;;;;;;;;;;18.20;99.90;;;;;;5064574;28;20315;-66
2023/09/04 04:16:19;;;;;;;;;;;18.40;99.90;;;;;;5053360;28;19924;-65
2023/09/04 04:18:47;;;;;;;;;;;18.50;99.90;;;;;;5054942;28;19952;-65
2023/09/04 04:21:14;;;;;;;;;;;18.60;99.90;;;;;;5037194;28;19945;-66
2023/09/04 04:23:42;;;;;;;;;;;18.60;99.90;;;;;;5041701;28;19929;-67
2023/09/04 04:26:13;;;;;;;;;;;18.40;99.90;;;;;;5044765;28;19932;-69
2023/09/04 04:28:42;;;;;;;;;;;18.30;99.90;;;;;;5042103;28;19975;-69
2023/09/04 04:31:11;;;;;;;;;;;18.30;99.90;;;;;;5045371;28;19932;-69
2023/09/04 04:33:38;;;;;;;;;;;18.40;99.90;;;;;;5053558;28;19929;-69
2023/09/04 04:36:06;;;;;;;;;;;18.10;99.90;;;;;;5051506;28;19925;-69
2023/09/04 04:38:34;;;;;;;;;;;18.10;99.90;;;;;;5061217;28;19924;-69
2023/09/04 04:41:02;;;;;;;;;;;18.20;99.90;;;;;;5060879;28;20019;-69
2023/09/04 04:43:30;;;;;;;;;;;18.30;99.90;;;;;;5053482;28;19978;-69
2023/09/04 04:45:59;;;;;;;;;;;18.30;99.90;;;;;;5047929;28;20184;-69
2023/09/04 04:48:27;;;;;;;;;;;18.30;99.90;;;;;;5054091;28;19932;-69
2023/09/04 04:50:55;;;;;;;;;;;18.40;99.90;;;;;;5050386;28;20198;-69
2023/09/04 04:53:23;;;;;;;;;;;18.10;99.90;;;;;;5054001;28;20035;-69
2023/09/04 04:55:51;;;;;;;;;;;18.00;99.90;;;;;;5050492;28;19925;-70
2023/09/04 04:58:19;;;;;;;;;;;17.80;99.90;;;;;;5047178;28;19925;-68
2023/09/04 05:00:47;;;;;;;;;;;17.60;99.90;;;;;;5051261;28;19931;-67
2023/09/04 05:03:16;;;;;;;;;;;17.50;99.90;;;;;;5053599;28;19932;-68
2023/09/04 05:05:44;;;;;;;;;;;17.40;99.90;;;;;;5055855;28;20017;-69
2023/09/04 05:08:12;;;;;;;;;;;17.60;99.90;;;;;;5055981;28;20002;-67
2023/09/04 05:10:40;;;;;;;;;;;17.50;99.90;;;;;;5059426;28;19955;-67
2023/09/04 05:13:07;;;;;;;;;;;17.40;99.90;;;;;;5061908;28;19932;-67
2023/09/04 05:15:35;;;;;;;;;;;17.30;99.90;;;;;;5054326;28;19931;-67
2023/09/04 05:18:03;;;;;;;;;;;17.30;99.90;;;;;;5056910;28;20007;-67
2023/09/04 05:20:36;;;;;;;;;;;17.20;99.90;;;;;;5049887;28;20310;-67
2023/09/04 05:23:04;;;;;;;;;;;17.00;99.90;;;;;;5040951;28;20672;-66
2023/09/04 05:25:32;;;;;;;;;;;17.00;99.90;;;;;;5042445;28;19925;-69
2023/09/04 05:28:00;;;;;;;;;;;17.00;99.90;;;;;;5042301;28;19925;-67
2023/09/04 05:30:28;;;;;;;;;;;17.20;99.90;;;;;;5042666;28;19936;-68
2023/09/04 05:32:56;;;;;;;;;;;17.20;99.90;;;;;;5039350;28;19936;-69
2023/09/04 05:35:23;;;;;;;;;;;17.50;99.90;;;;;;5040908;28;19933;-68
2023/09/04 05:37:53;;;;;;;;;;;17.40;99.90;;;;;;5040928;28;19948;-68
2023/09/04 05:40:21;;;;;;;;;;;17.50;99.90;;;;;;5041746;28;19933;-67
2023/09/04 05:42:48;;;;;;;;;;;17.40;99.90;;;;;;5037677;28;20041;-67
2023/09/04 05:45:16;;;;;;;;;;;17.30;99.90;;;;;;5040668;28;19933;-67
2023/09/04 05:47:45;;;;;;;;;;;17.40;99.90;;;;;;5041035;28;19940;-67
2023/09/04 05:50:13;;;;;;;;;;;17.40;99.90;;;;;;5024948;28;19929;-68
2023/09/04 05:52:41;;;;;;;;;;;17.50;99.90;;;;;;5038463;28;19940;-67
2023/09/04 05:55:10;;;;;;;;;;;17.30;99.90;;;;;;5025819;28;19933;-66
2023/09/04 05:57:38;;;;;;;;;;;17.30;99.90;;;;;;5039669;28;20844;-66
2023/09/04 06:00:07;;;;;;;;;;;17.20;99.90;;;;;;5038108;28;19933;-67
2023/09/04 06:02:35;;;;;;;;;;;17.30;99.90;;;;;;5037651;28;20635;-68
2023/09/04 06:05:03;;;;;;;;;;;17.40;99.90;;;;;;5037730;28;19939;-67
2023/09/04 06:07:32;;;;;;;;;;;17.60;99.90;;;;;;5039538;28;19924;-66
2023/09/04 06:10:00;;;;;;;;;;;17.60;99.90;;;;;;5041310;28;19947;-66
2023/09/04 06:12:29;;;;;;;;;;;17.50;99.90;;;;;;5042091;28;19943;-68
2023/09/04 06:14:57;;;;;;;;;;;17.50;99.90;;;;;;5053275;28;20308;-67
2023/09/04 06:17:24;;;;;;;;;;;17.50;99.90;;;;;;5060414;28;20311;-67
2023/09/04 06:19:52;;;;;;;;;;;17.40;99.90;;;;;;5055552;28;19924;-67
2023/09/04 06:22:20;;;;;;;;;;;17.40;99.90;;;;;;5054875;28;19929;-67
2023/09/04 06:24:49;;;;;;;;;;;17.30;99.90;;;;;;5061956;28;19929;-67
2023/09/04 06:27:17;;;;;;;;;;;17.30;99.90;;;;;;5059313;28;19925;-66
2023/09/04 06:29:46;;;;;;;;;;;17.20;99.90;;;;;;5052142;28;19979;-66
2023/09/04 06:32:14;;;;;;;;;;;17.20;99.90;;;;;;5062138;28;19925;-65
2023/09/04 06:34:42;;;;;;;;;;;17.30;99.90;;;;;;5055577;28;19932;-66
2023/09/04 06:37:10;;;;;;;;;;;17.30;99.90;;;;;;5060827;28;19998;-66
2023/09/04 06:39:38;;;;;;;;;;;17.40;99.90;;;;;;5052728;28;19933;-66
2023/09/04 06:42:05;;;;;;;;;;;17.50;99.90;;;;;;5060705;28;20358;-65
2023/09/04 06:44:33;;;;;;;;;;;17.50;99.90;;;;;;5044675;28;19925;-66
2023/09/04 06:47:02;;;;;;;;;;;17.50;99.90;;;;;;5052424;28;19932;-66
2023/09/04 06:49:30;;;;;;;;;;;17.60;99.90;;;;;;5044659;28;20010;-65
2023/09/04 06:51:58;;;;;;;;;;;17.70;99.90;;;;;;5058931;28;19932;-66
2023/09/04 06:54:26;;;;;;;;;;;17.80;99.90;;;;;;5052470;28;20015;-66
2023/09/04 06:56:54;;;;;;;;;;;17.80;99.90;;;;;;5059446;28;19932;-65
2023/09/04 06:59:22;;;;;;;;;;;17.90;99.90;;;;;;5053214;28;20346;-66
2023/09/04 07:01:50;;;;;;;;;;;17.90;99.90;;;;;;5051779;28;19940;-66
2023/09/04 07:04:19;;;;;;;;;;;18.00;99.90;;;;;;5052088;28;19925;-66
2023/09/04 07:06:47;;;;;;;;;;;18.00;99.90;;;;;;5060450;28;19925;-65
2023/09/04 07:09:14;;;;;;;;;;;18.00;99.90;;;;;;5052134;28;19925;-66
2023/09/04 07:11:42;;;;;;;;;;;18.10;99.90;;;;;;5057255;28;19981;-66
2023/09/04 07:14:10;;;;;;;;;;;18.10;99.90;;;;;;5055580;28;20478;-65
2023/09/04 07:16:38;;;;;;;;;;;18.20;99.90;;;;;;5050527;28;19929;-66
2023/09/04 07:19:21;;;;;;;;;;;18.20;99.90;;;;;;5059842;28;19931;-66
2023/09/04 07:21:49;;;;;;;;;;;18.30;99.90;;;;;;5051934;28;19932;-65
2023/09/04 07:24:17;;;;;;;;;;;18.30;99.90;;;;;;5051846;28;19991;-65
2023/09/04 07:26:45;;;;;;;;;;;18.40;99.90;;;;;;5050967;28;19932;-65
2023/09/04 07:29:13;;;;;;;;;;;18.40;99.90;;;;;;5051681;28;19925;-65
2023/09/04 07:31:41;;;;;;;;;;;18.40;99.90;;;;;;5051846;28;19974;-65
2023/09/04 07:34:08;;;;;;;;;;;18.50;99.90;;;;;;5045510;28;19928;-65
2023/09/04 07:36:38;;;;;;;;;;;18.70;99.90;;;;;;5063581;28;19925;-65
2023/09/04 07:39:05;;;;;;;;;;;18.80;99.90;;;;;;5055308;28;19932;-66
2023/09/04 07:41:33;;;;;;;;;;;18.90;99.90;;;;;;5051644;28;19925;-66
2023/09/04 07:44:01;;;;;;;;;;;18.90;99.90;;;;;;5051875;28;19932;-67
2023/09/04 07:46:29;;;;;;;;;;;19.00;99.90;;;;;;5059767;28;20407;-66
2023/09/04 07:48:57;;;;;;;;;;;19.10;99.90;;;;;;5050819;28;19929;-66
2023/09/04 07:51:24;;;;;;;;;;;19.30;99.90;;;;;;5059476;28;19925;-66
2023/09/04 07:54:04;;;;;;;;;;;19.30;99.90;;;;;;5051475;28;19929;-66
2023/09/04 07:56:31;;;;;;;;;;;19.40;99.90;;;;;;5059897;28;19928;-66
2023/09/04 07:59:09;;;;;;;;;;;19.60;99.90;;;;;;5059561;28;19924;-66
2023/09/04 08:01:38;;;;;;;;;;;19.60;99.90;;;;;;5043430;28;19932;-66
2023/09/04 08:04:06;;;;;;;;;;;19.70;99.90;;;;;;5048091;28;19925;-65
2023/09/04 08:06:34;;;;;;;;;;;19.90;99.90;;;;;;5054339;28;19948;-67
2023/09/04 08:09:05;;;;;;;;;;;20.10;99.90;;;;;;5054875;28;21341;-66
2023/09/04 08:11:33;;;;;;;;;;;20.20;99.90;;;;;;5059278;28;19929;-66
2023/09/04 08:14:01;;;;;;;;;;;20.30;99.90;;;;;;5051295;28;19924;-66
2023/09/04 08:16:29;;;;;;;;;;;20.50;99.90;;;;;;5051107;28;19925;-66
2023/09/04 08:18:56;;;;;;;;;;;20.70;99.90;;;;;;5050515;28;20007;-67
2023/09/04 08:21:24;;;;;;;;;;;20.80;99.90;;;;;;5057316;28;19979;-66
2023/09/04 08:23:52;;;;;;;;;;;20.90;99.90;;;;;;5051439;28;19928;-66
2023/09/04 08:26:21;;;;;;;;;;;21.00;99.90;;;;;;5059339;28;19928;-67
2023/09/04 08:28:49;;;;;;;;;;;21.10;99.90;;;;;;5056285;28;19924;-66
2023/09/04 08:31:17;;;;;;;;;;;21.10;99.90;;;;;;5054050;28;20351;-66
2023/09/04 08:33:45;;;;;;;;;;;21.30;99.90;;;;;;5055585;28;19963;-66
2023/09/04 08:36:13;;;;;;;;;;;21.40;99.90;;;;;;5060395;28;20540;-66
2023/09/04 08:38:41;;;;;;;;;;;21.60;99.90;;;;;;5046587;28;19925;-66
2023/09/04 08:41:09;;;;;;;;;;;21.70;99.90;;;;;;5062898;28;19950;-67
2023/09/04 08:43:39;;;;;;;;;;;21.90;99.90;;;;;;5054932;28;19925;-66
2023/09/04 08:46:07;;;;;;;;;;;22.30;99.90;;;;;;5062339;28;19924;-67
2023/09/04 08:48:39;;;;;;;;;;;22.40;99.90;;;;;;5055050;28;19924;-67
2023/09/04 08:51:07;;;;;;;;;;;22.40;99.90;;;;;;5063289;28;19967;-67
2023/09/04 08:53:36;;;;;;;;;;;22.50;99.90;;;;;;5050495;28;19932;-66
2023/09/04 08:56:04;;;;;;;;;;;22.60;99.90;;;;;;5063227;28;19932;-66
2023/09/04 08:58:32;;;;;;;;;;;22.70;99.90;;;;;;5054486;28;19925;-67
2023/09/04 09:01:03;;;;;;;;;;;22.70;99.90;;;;;;5054799;28;20362;-66
2023/09/04 09:03:31;;;;;;;;;;;22.80;99.90;;;;;;5056726;28;19978;-66
2023/09/04 09:06:00;;;;;;;;;;;23.00;99.90;;;;;;5066546;28;19928;-66
2023/09/04 09:08:31;;;;;;;;;;;23.00;99.90;;;;;;5056065;28;19953;-66
2023/09/04 09:11:00;;;;;;;;;;;23.00;99.90;;;;;;5048126;28;19925;-66
2023/09/04 09:13:28;;;;;;;;;;;23.10;99.90;;;;;;5055600;28;20437;-67
2023/09/04 09:15:55;;;;;;;;;;;23.10;99.90;;;;;;5060864;28;19925;-66
2023/09/04 09:18:38;;;;;;;;;;;23.30;99.90;;;;;;5054290;28;19932;-66
2023/09/04 09:21:21;;;;;;;;;;;23.50;99.90;;;;;;5092659;22;19990;-67
2023/09/04 09:23:49;;;;;;;;;;;23.60;99.90;;;;;;5062388;28;19931;-67
2023/09/04 09:26:17;;;;;;;;;;;23.70;99.90;;;;;;5068905;28;19928;-67
2023/09/04 09:28:45;;;;;;;;;;;23.80;99.90;;;;;;5058074;28;20279;-67
2023/09/04 09:31:13;;;;;;;;;;;24.00;99.90;;;;;;5057747;28;20359;-67
2023/09/04 09:33:42;;;;;;;;;;;24.20;99.90;;;;;;5053816;28;20372;-67
2023/09/04 09:36:12;;;;;;;;;;;24.30;99.90;;;;;;5054110;28;19925;-68
2023/09/04 09:38:43;;;;;;;;;;;24.40;99.90;;;;;;5062120;28;19925;-67
2023/09/04 09:41:11;;;;;;;;;;;24.60;99.90;;;;;;5054185;28;19928;-67
2023/09/04 09:43:39;;;;;;;;;;;24.90;99.90;;;;;;5053679;28;19948;-68
2023/09/04 09:46:08;;;;;;;;;;;24.90;99.90;;;;;;5062266;28;20379;-67
2023/09/04 09:48:36;;;;;;;;;;;24.80;99.90;;;;;;5050517;28;19967;-67
2023/09/04 09:51:06;;;;;;;;;;;25.00;99.90;;;;;;5054196;28;19929;-67
2023/09/04 09:53:47;;;;;;;;;;;25.00;99.90;;;;;;5053552;28;19925;-68
2023/09/04 09:56:15;;;;;;;;;;;25.10;99.90;;;;;;5053808;28;19939;-68
2023/09/04 09:58:48;;;;;;;;;;;25.10;99.90;;;;;;5053473;28;19924;-68
2023/09/04 10:01:16;;;;;;;;;;;25.30;99.90;;;;;;5053712;28;19936;-68
2023/09/04 10:03:46;;;;;;;;;;;25.60;99.90;;;;;;5051852;28;19931;-68
2023/09/04 10:06:22;;;;;;;;;;;25.60;99.90;;;;;;5061894;28;19929;-68
2023/09/04 10:08:51;;;;;;;;;;;25.80;99.90;;;;;;5061796;28;20054;-68
2023/09/04 10:11:19;;;;;;;;;;;25.90;99.90;;;;;;5053458;28;19925;-68
2023/09/04 10:13:51;;;;;;;;;;;26.00;99.90;;;;;;5045390;28;20027;-68
2023/09/04 10:16:22;;;;;;;;;;;26.20;99.90;;;;;;5061746;28;20418;-68
2023/09/04 10:18:52;;;;;;;;;;;26.00;99.90;;;;;;5037371;28;19932;-68
2023/09/04 10:21:22;;;;;;;;;;;25.90;99.90;;;;;;5061232;28;19931;-67
2023/09/04 10:23:53;;;;;;;;;;;26.00;99.90;;;;;;5045358;28;19931;-68
2023/09/04 10:26:24;;;;;;;;;;;26.10;99.90;;;;;;5061253;28;19932;-68
2023/09/04 10:28:58;;;;;;;;;;;26.10;99.90;;;;;;5049533;28;19924;-68
2023/09/04 10:31:26;;;;;;;;;;;26.40;99.90;;;;;;5055873;28;20324;-67
2023/09/04 10:33:54;;;;;;;;;;;26.40;99.90;;;;;;5052932;28;20011;-68
2023/09/04 10:36:24;;;;;;;;;;;26.60;99.90;;;;;;5061379;28;19925;-68
2023/09/04 10:38:51;;;;;;;;;;;26.80;99.90;;;;;;5052927;28;19978;-68
2023/09/04 10:41:20;;;;;;;;;;;27.00;99.10;;;;;;5060430;28;19994;-70
2023/09/04 10:43:48;;;;;;;;;;;27.00;97.50;;;;;;5061000;28;19924;-68
2023/09/04 10:46:16;;;;;;;;;;;27.00;97.90;;;;;;5052972;28;19928;-67
2023/09/04 10:48:45;;;;;;;;;;;27.00;96.90;;;;;;5059935;28;21638;-68
2023/09/04 10:51:27;;;;;;;;;;;26.70;96.40;;;;;;5052626;28;19925;-67
2023/09/04 10:53:56;;;;;;;;;;;27.00;96.80;;;;;;5052733;28;20334;-68
2023/09/04 10:56:24;;;;;;;;;;;27.20;96.70;;;;;;5060938;28;19925;-67
2023/09/04 10:59:02;;;;;;;;;;;27.20;95.70;;;;;;5060802;28;20048;-68
2023/09/04 11:01:34;;;;;;;;;;;27.40;95.70;;;;;;5060197;28;19925;-68
2023/09/04 11:04:06;;;;;;;;;;;27.60;95.50;;;;;;5056760;28;19936;-68
2023/09/04 11:06:36;;;;;;;;;;;27.60;95.00;;;;;;5052580;28;19960;-68
2023/09/04 11:09:04;;;;;;;;;;;27.80;94.60;;;;;;5052397;28;19947;-68
2023/09/04 11:11:32;;;;;;;;;;;28.30;95.90;;;;;;5051900;28;19928;-67
2023/09/04 11:14:01;;;;;;;;;;;28.30;93.50;;;;;;5041027;28;19929;-68
2023/09/04 11:16:33;;;;;;;;;;;28.10;93.20;;;;;;5049210;28;19929;-68
2023/09/04 11:19:03;;;;;;;;;;;27.80;93.40;;;;;;5059406;28;19928;-68
2023/09/04 11:21:31;;;;;;;;;;;28.10;93.10;;;;;;5059998;28;19925;-68
2023/09/04 11:24:02;;;;;;;;;;;28.00;93.40;;;;;;5052207;28;19990;-67
2023/09/04 11:26:30;;;;;;;;;;;28.10;93.90;;;;;;5059988;28;19928;-68
2023/09/04 11:28:59;;;;;;;;;;;28.20;93.00;;;;;;5050467;28;19928;-68
2023/09/04 11:31:27;;;;;;;;;;;28.30;93.50;;;;;;5059999;28;19929;-68
2023/09/04 11:33:56;;;;;;;;;;;28.60;92.40;;;;;;5052018;28;19925;-68
2023/09/04 11:36:25;;;;;;;;;;;28.60;92.10;;;;;;5051941;28;19925;-67
2023/09/04 11:39:05;;;;;;;;;;;28.60;91.70;;;;;;5059615;28;20303;-68
2023/09/04 11:41:33;;;;;;;;;;;28.80;91.20;;;;;;5051386;28;19933;-68
2023/09/04 11:44:05;;;;;;;;;;;29.00;91.40;;;;;;5048697;28;19979;-68
2023/09/04 11:46:33;;;;;;;;;;;29.00;90.30;;;;;;5049229;28;19983;-67
2023/09/04 11:49:02;;;;;;;;;;;28.80;90.30;;;;;;5058995;28;19947;-68
2023/09/04 11:51:30;;;;;;;;;;;28.80;91.50;;;;;;5059556;28;19929;-68
2023/09/04 11:53:58;;;;;;;;;;;28.80;90.30;;;;;;5055536;28;19925;-68
2023/09/04 11:56:27;;;;;;;;;;;28.90;90.00;;;;;;5055776;28;20388;-67
2023/09/04 11:58:56;;;;;;;;;;;29.10;89.50;;;;;;5059375;28;19924;-68
2023/09/04 12:01:24;;;;;;;;;;;29.00;88.90;;;;;;5047038;28;19925;-68
2023/09/04 12:03:53;;;;;;;;;;;29.10;90.10;;;;;;5051280;28;19976;-68
2023/09/04 12:06:25;;;;;;;;;;;29.10;88.50;;;;;;5058130;28;20547;-68
2023/09/04 12:08:52;;;;;;;;;;;29.20;89.40;;;;;;5051776;28;20027;-68
2023/09/04 12:11:21;;;;;;;;;;;29.30;87.60;;;;;;5050899;28;20403;-68
2023/09/04 12:13:51;;;;;;;;;;;29.50;88.10;;;;;;5059070;28;19928;-67
2023/09/04 12:16:18;;;;;;;;;;;29.60;87.20;;;;;;5051218;28;19929;-68
2023/09/04 12:18:46;;;;;;;;;;;29.50;86.50;;;;;;5053045;28;20308;-68
2023/09/04 12:21:14;;;;;;;;;;;29.40;88.20;;;;;;5056946;28;19940;-68
2023/09/04 12:23:44;;;;;;;;;;;29.70;85.90;;;;;;5050678;28;20371;-68
2023/09/04 12:26:15;;;;;;;;;;;29.70;84.80;;;;;;5051057;28;19932;-68
2023/09/04 12:28:44;;;;;;;;;;;29.50;85.70;;;;;;5050376;28;19925;-68
2023/09/04 12:31:15;;;;;;;;;;;29.70;85.70;;;;;;5046046;28;19925;-68
2023/09/04 12:33:43;;;;;;;;;;;29.80;85.10;;;;;;5057211;28;19924;-67
2023/09/04 12:36:13;;;;;;;;;;;29.50;85.10;;;;;;5051028;28;19932;-67
2023/09/04 12:38:41;;;;;;;;;;;29.40;85.60;;;;;;5059345;28;19932;-68
2023/09/04 12:41:09;;;;;;;;;;;29.40;85.90;;;;;;5051088;28;19929;-68
2023/09/04 12:43:36;;;;;;;;;;;29.80;87.10;;;;;;5058851;28;19928;-68
2023/09/04 12:46:05;;;;;;;;;;;30.10;85.20;;;;;;5043707;28;19929;-68
2023/09/04 12:48:34;;;;;;;;;;;30.50;84.80;;;;;;5059158;28;19925;-68
2023/09/04 12:51:02;;;;;;;;;;;30.70;82.10;;;;;;5044976;28;19932;-68
2023/09/04 12:53:30;;;;;;;;;;;30.60;77.90;;;;;;5050655;28;19924;-68
2023/09/04 12:55:58;;;;;;;;;;;30.60;78.00;;;;;;5058943;28;20318;-68
2023/09/04 12:58:26;;;;;;;;;;;30.80;76.30;;;;;;5050990;28;19925;-68
2023/09/04 13:00:54;;;;;;;;;;;30.90;75.30;;;;;;5052490;28;19924;-68
2023/09/04 13:03:25;;;;;;;;;;;30.80;73.70;;;;;;5062606;28;19924;-68
2023/09/04 13:05:55;;;;;;;;;;;30.50;71.70;;;;;;5051693;28;20338;-67
2023/09/04 13:08:23;;;;;;;;;;;30.30;72.10;;;;;;5050828;28;19970;-69
2023/09/04 13:10:51;;;;;;;;;;;30.50;71.10;;;;;;5052457;28;19936;-68
2023/09/04 13:13:19;;;;;;;;;;;30.80;71.40;;;;;;5056565;28;20004;-68
2023/09/04 13:15:47;;;;;;;;;;;31.20;71.20;;;;;;5049733;28;19924;-68
2023/09/04 13:18:15;;;;;;;;;;;31.40;71.30;;;;;;5056018;28;19974;-68
2023/09/04 13:20:42;;;;;;;;;;;32.10;72.20;;;;;;5053124;28;19932;-68
2023/09/04 13:23:11;;;;;;;;;;;32.40;71.40;;;;;;5050332;28;19925;-68
2023/09/04 13:25:39;;;;;;;;;;;32.60;70.60;;;;;;5053265;28;19928;-68
2023/09/04 13:28:07;;;;;;;;;;;32.10;72.50;;;;;;5054401;28;19975;-68
2023/09/04 13:30:35;;;;;;;;;;;31.80;71.80;;;;;;5053486;28;19925;-68
2023/09/04 13:33:03;;;;;;;;;;;31.90;72.20;;;;;;5057142;28;19975;-68
2023/09/04 13:35:31;;;;;;;;;;;32.30;72.10;;;;;;5058689;28;19925;-68
2023/09/04 13:37:59;;;;;;;;;;;32.10;72.50;;;;;;5062227;28;19929;-69
2023/09/04 13:40:28;;;;;;;;;;;32.20;69.90;;;;;;5062387;28;19925;-68
2023/09/04 13:42:56;;;;;;;;;;;32.00;71.70;;;;;;5053718;28;19970;-68
2023/09/04 13:45:24;;;;;;;;;;;31.80;73.10;;;;;;5052308;28;19924;-68
2023/09/04 13:47:51;;;;;;;;;;;31.80;71.80;;;;;;5053905;28;19936;-68
2023/09/04 13:50:22;;;;;;;;;;;31.70;71.00;;;;;;5059476;28;19932;-68
2023/09/04 13:52:50;;;;;;;;;;;31.60;70.80;;;;;;5056738;28;19931;-70
2023/09/04 13:55:18;;;;;;;;;;;31.40;70.80;;;;;;5055810;28;19932;-69
2023/09/04 13:57:48;;;;;;;;;;;31.10;70.10;;;;;;5062090;28;19931;-69
2023/09/04 14:00:16;;;;;;;;;;;31.20;71.40;;;;;;5058429;28;20307;-69
2023/09/04 14:02:44;;;;;;;;;;;31.40;72.00;;;;;;5053316;28;19928;-69
2023/09/04 14:05:15;;;;;;;;;;;31.30;71.00;;;;;;5057639;28;19931;-69
2023/09/04 14:07:43;;;;;;;;;;;31.30;72.10;;;;;;5057034;28;19943;-69
2023/09/04 14:10:11;;;;;;;;;;;31.20;71.30;;;;;;5057489;28;19932;-69
2023/09/04 14:12:39;;;;;;;;;;;31.30;71.70;;;;;;5057465;28;19973;-69
2023/09/04 14:15:09;;;;;;;;;;;31.30;72.10;;;;;;5061391;28;19974;-68
2023/09/04 14:17:37;;;;;;;;;;;31.20;71.40;;;;;;5051802;28;20016;-68
2023/09/04 14:20:06;;;;;;;;;;;31.40;72.30;;;;;;5061484;28;20508;-69
2023/09/04 14:22:33;;;;;;;;;;;31.60;70.90;;;;;;5053117;28;19925;-69
2023/09/04 14:25:01;;;;;;;;;;;31.60;70.70;;;;;;5055295;28;19924;-69